sensor_id;sensor_type;location;lat;lon;timestamp;pressure;altitude;pressure_sealevel;temperature;humidity
55077;BME280;40971;44.702;11.030;2023-02-16T00:05:43;102673.97;;;2.06;78.04
55077;BME280;40971;44.702;11.030;2023-02-16T00:15:44;102663.22;;;1.71;78.04
55077;BME280;40971;44.702;11.030;2023-02-16T00:25:45;102668.06;;;1.57;80.23
55077;BME280;40971;44.702;11.030;2023-02-16T00:35:47;102668.59;;;0.96;79.31
55077;BME280;40971;44.702;11.030;2023-02-16T00:56:57;102660.16;;;1.39;80.15
55077;BME280;40971;44.702;11.030;2023-02-16T01:06:57;102672.34;;;1.12;80.16
55077;BME280;40971;44.702;11.030;2023-02-16T01:17:17;102667.09;;;0.39;85.52
55077;BME280;40971;44.702;11.030;2023-02-16T01:27:17;102659.69;;;0.29;85.38
55077;BME280;40971;44.702;11.030;2023-02-16T01:37:18;102647.69;;;0.77;84.27
55077;BME280;40971;44.702;11.030;2023-02-16T01:57:42;102637.09;;;1.08;80.73
55077;BME280;40971;44.702;11.030;2023-02-16T02:50:40;102598.47;;;0.29;83.06
55077;BME280;40971;44.702;11.030;2023-02-16T03:01:02;102599.69;;;-0.35;81.24
55077;BME280;40971;44.702;11.030;2023-02-16T03:11:05;102605.31;;;0.06;86.05
55077;BME280;40971;44.702;11.030;2023-02-16T03:21:27;102615.78;;;0.27;81.32
55077;BME280;40971;44.702;11.030;2023-02-16T03:31:52;102610.06;;;0.18;83.70
55077;BME280;40971;44.702;11.030;2023-02-16T03:41:54;102620.69;;;0.35;83.32
55077;BME280;40971;44.702;11.030;2023-02-16T03:51:55;102622.03;;;0.20;81.54
55077;BME280;40971;44.702;11.030;2023-02-16T04:01:55;102625.00;;;-0.18;81.41
55077;BME280;40971;44.702;11.030;2023-02-16T04:11:56;102632.66;;;-0.15;82.41
55077;BME280;40971;44.702;11.030;2023-02-16T04:22:15;102635.22;;;0.13;82.51
55077;BME280;40971;44.702;11.030;2023-02-16T04:32:15;102647.31;;;0.12;82.46
55077;BME280;40971;44.702;11.030;2023-02-16T04:42:16;102645.00;;;0.03;80.91
55077;BME280;40971;44.702;11.030;2023-02-16T04:52:16;102646.47;;;-0.16;82.56
55077;BME280;40971;44.702;11.030;2023-02-16T05:02:17;102646.00;;;-0.01;82.71
55077;BME280;40971;44.702;11.030;2023-02-16T05:12:17;102662.28;;;-0.54;84.29
55077;BME280;40971;44.702;11.030;2023-02-16T05:22:36;102664.03;;;-0.86;85.06
55077;BME280;40971;44.702;11.030;2023-02-16T05:32:38;102661.06;;;-1.03;84.12
55077;BME280;40971;44.702;11.030;2023-02-16T05:42:38;102662.94;;;-0.77;82.96
55077;BME280;40971;44.702;11.030;2023-02-16T05:52:39;102661.63;;;-0.33;82.36
55077;BME280;40971;44.702;11.030;2023-02-16T06:02:39;102671.84;;;-0.29;80.92
55077;BME280;40971;44.702;11.030;2023-02-16T06:12:40;102680.47;;;-0.28;81.90
55077;BME280;40971;44.702;11.030;2023-02-16T06:22:41;102691.06;;;-0.37;81.99
55077;BME280;40971;44.702;11.030;2023-02-16T06:32:41;102685.63;;;-0.57;82.06
55077;BME280;40971;44.702;11.030;2023-02-16T06:42:42;102705.13;;;-0.18;81.12
55077;BME280;40971;44.702;11.030;2023-02-16T06:52:42;102703.34;;;-0.16;80.78
55077;BME280;40971;44.702;11.030;2023-02-16T07:02:43;102703.81;;;-0.04;79.35
55077;BME280;40971;44.702;11.030;2023-02-16T07:12:46;102726.53;;;0.93;79.52
55077;BME280;40971;44.702;11.030;2023-02-16T07:22:46;102721.13;;;1.70;76.93
55077;BME280;40971;44.702;11.030;2023-02-16T07:32:47;102732.75;;;2.49;73.47
55077;BME280;40971;44.702;11.030;2023-02-16T07:42:47;102741.84;;;3.21;71.48
55077;BME280;40971;44.702;11.030;2023-02-16T07:52:48;102727.28;;;3.74;70.59
55077;BME280;40971;44.702;11.030;2023-02-16T08:02:48;102741.06;;;4.13;70.06
55077;BME280;40971;44.702;11.030;2023-02-16T08:12:49;102767.09;;;5.02;68.52
55077;BME280;40971;44.702;11.030;2023-02-16T08:22:53;102771.72;;;5.96;66.74
55077;BME280;40971;44.702;11.030;2023-02-16T08:32:53;102747.88;;;6.17;65.28
55077;BME280;40971;44.702;11.030;2023-02-16T08:42:55;102777.91;;;6.71;64.34
55077;BME280;40971;44.702;11.030;2023-02-16T08:52:56;102794.63;;;6.98;64.59
55077;BME280;40971;44.702;11.030;2023-02-16T09:02:58;102800.47;;;7.32;63.96
55077;BME280;40971;44.702;11.030;2023-02-16T09:12:59;102808.84;;;7.67;63.30
55077;BME280;40971;44.702;11.030;2023-02-16T09:23:01;102803.56;;;8.23;61.11
55077;BME280;40971;44.702;11.030;2023-02-16T09:33:01;102800.06;;;8.51;60.44
55077;BME280;40971;44.702;11.030;2023-02-16T09:53:45;102820.81;;;9.20;58.74
55077;BME280;40971;44.702;11.030;2023-02-16T10:03:59;102837.00;;;9.39;58.95
55077;BME280;40971;44.702;11.030;2023-02-16T10:24:22;102831.78;;;9.52;57.76
55077;BME280;40971;44.702;11.030;2023-02-16T10:55:11;102796.53;;;10.88;55.21
55077;BME280;40971;44.702;11.030;2023-02-16T11:05:35;102807.28;;;11.31;54.93
55077;BME280;40971;44.702;11.030;2023-02-16T11:15:38;102804.59;;;11.55;54.44
55077;BME280;40971;44.702;11.030;2023-02-16T11:25:39;102780.41;;;12.05;53.30
55077;BME280;40971;44.702;11.030;2023-02-16T11:35:41;102759.59;;;12.66;51.43
55077;BME280;40971;44.702;11.030;2023-02-16T11:45:42;102762.44;;;12.74;49.51
55077;BME280;40971;44.702;11.030;2023-02-16T11:55:45;102749.13;;;12.75;47.95
55077;BME280;40971;44.702;11.030;2023-02-16T12:16:22;102722.84;;;14.54;43.94
55077;BME280;40971;44.702;11.030;2023-02-16T12:46:42;102690.22;;;14.73;41.37
55077;BME280;40971;44.702;11.030;2023-02-16T12:56:51;102662.09;;;15.18;40.00
55077;BME280;40971;44.702;11.030;2023-02-16T13:07:15;102665.13;;;15.60;39.23
55077;BME280;40971;44.702;11.030;2023-02-16T13:17:27;102662.69;;;15.94;37.54
55077;BME280;40971;44.702;11.030;2023-02-16T13:38:03;102631.72;;;16.20;36.77
55077;BME280;40971;44.702;11.030;2023-02-16T13:48:21;102621.22;;;16.10;36.97
55077;BME280;40971;44.702;11.030;2023-02-16T13:58:29;102625.78;;;16.61;36.53
55077;BME280;40971;44.702;11.030;2023-02-16T14:08:30;102615.75;;;16.12;37.88
55077;BME280;40971;44.702;11.030;2023-02-16T14:18:39;102604.88;;;15.52;37.78
55077;BME280;40971;44.702;11.030;2023-02-16T14:39:33;102592.56;;;15.79;38.56
55077;BME280;40971;44.702;11.030;2023-02-16T15:00:51;102606.34;;;15.64;38.63
55077;BME280;40971;44.702;11.030;2023-02-16T15:10:52;102603.66;;;15.47;39.85
55077;BME280;40971;44.702;11.030;2023-02-16T15:20:56;102596.88;;;15.62;38.58
55077;BME280;40971;44.702;11.030;2023-02-16T15:31:00;102594.34;;;15.15;41.00
55077;BME280;40971;44.702;11.030;2023-02-16T15:41:07;102588.56;;;14.46;42.38
55077;BME280;40971;44.702;11.030;2023-02-16T16:01:23;102584.66;;;13.45;45.62
55077;BME280;40971;44.702;11.030;2023-02-16T16:11:24;102605.38;;;13.10;47.05
55077;BME280;40971;44.702;11.030;2023-02-16T16:21:27;102603.59;;;12.39;48.73
55077;BME280;40971;44.702;11.030;2023-02-16T16:31:39;102612.22;;;11.88;49.88
55077;BME280;40971;44.702;11.030;2023-02-16T16:41:40;102611.81;;;10.72;52.50
55077;BME280;40971;44.702;11.030;2023-02-16T16:51:42;102611.72;;;10.28;53.86
55077;BME280;40971;44.702;11.030;2023-02-16T17:01:42;102607.50;;;9.30;56.60
55077;BME280;40971;44.702;11.030;2023-02-16T17:11:45;102621.16;;;9.23;57.12
55077;BME280;40971;44.702;11.030;2023-02-16T17:21:45;102620.66;;;8.15;57.09
55077;BME280;40971;44.702;11.030;2023-02-16T17:31:46;102613.63;;;7.77;61.75
55077;BME280;40971;44.702;11.030;2023-02-16T17:41:46;102619.03;;;7.47;62.62
55077;BME280;40971;44.702;11.030;2023-02-16T17:51:47;102651.28;;;7.19;62.45
55077;BME280;40971;44.702;11.030;2023-02-16T18:01:47;102650.25;;;7.22;68.45
55077;BME280;40971;44.702;11.030;2023-02-16T18:11:48;102670.22;;;6.80;62.13
55077;BME280;40971;44.702;11.030;2023-02-16T18:21:49;102669.78;;;7.16;69.67
55077;BME280;40971;44.702;11.030;2023-02-16T18:31:49;102664.97;;;6.66;65.00
55077;BME280;40971;44.702;11.030;2023-02-16T18:41:50;102671.31;;;5.70;70.02
55077;BME280;40971;44.702;11.030;2023-02-16T18:51:50;102677.09;;;5.28;70.27
55077;BME280;40971;44.702;11.030;2023-02-16T19:01:55;102686.91;;;4.39;72.60
55077;BME280;40971;44.702;11.030;2023-02-16T19:11:56;102715.56;;;4.90;78.06
55077;BME280;40971;44.702;11.030;2023-02-16T19:21:56;102714.19;;;4.83;77.43
55077;BME280;40971;44.702;11.030;2023-02-16T19:31:57;102733.88;;;5.06;76.66
55077;BME280;40971;44.702;11.030;2023-02-16T19:41:57;102729.06;;;4.98;77.50
55077;BME280;40971;44.702;11.030;2023-02-16T19:51:59;102747.06;;;4.16;77.96
55077;BME280;40971;44.702;11.030;2023-02-16T20:02:03;102748.03;;;3.76;81.07
55077;BME280;40971;44.702;11.030;2023-02-16T20:12:04;102751.72;;;3.90;80.72
55077;BME280;40971;44.702;11.030;2023-02-16T20:22:04;102767.13;;;3.56;82.31
55077;BME280;40971;44.702;11.030;2023-02-16T20:32:05;102770.59;;;3.75;82.97
55077;BME280;40971;44.702;11.030;2023-02-16T20:42:05;102761.06;;;3.37;82.03
55077;BME280;40971;44.702;11.030;2023-02-16T20:52:06;102763.31;;;3.44;82.29
55077;BME280;40971;44.702;11.030;2023-02-16T21:02:10;102778.69;;;3.49;84.44
55077;BME280;40971;44.702;11.030;2023-02-16T21:12:11;102784.59;;;3.14;78.87
55077;BME280;40971;44.702;11.030;2023-02-16T21:22:11;102786.06;;;2.57;82.90
55077;BME280;40971;44.702;11.030;2023-02-16T21:32:12;102794.09;;;2.29;84.27
55077;BME280;40971;44.702;11.030;2023-02-16T21:42:13;102789.84;;;2.49;84.64
55077;BME280;40971;44.702;11.030;2023-02-16T21:52:14;102784.97;;;2.19;85.21
55077;BME280;40971;44.702;11.030;2023-02-16T22:02:14;102784.66;;;2.27;86.46
55077;BME280;40971;44.702;11.030;2023-02-16T22:12:15;102784.59;;;1.84;82.01
55077;BME280;40971;44.702;11.030;2023-02-16T22:22:15;102784.34;;;1.18;82.50
55077;BME280;40971;44.702;11.030;2023-02-16T22:32:16;102792.28;;;0.62;86.74
55077;BME280;40971;44.702;11.030;2023-02-16T22:42:17;102796.34;;;0.42;86.90
55077;BME280;40971;44.702;11.030;2023-02-16T22:52:17;102806.59;;;0.18;89.11
55077;BME280;40971;44.702;11.030;2023-02-16T23:02:18;102809.19;;;0.45;88.14
55077;BME280;40971;44.702;11.030;2023-02-16T23:12:18;102788.47;;;0.19;86.02
55077;BME280;40971;44.702;11.030;2023-02-16T23:22:19;102806.28;;;-0.01;86.26
55077;BME280;40971;44.702;11.030;2023-02-16T23:32:19;102799.97;;;0.37;87.19
55077;BME280;40971;44.702;11.030;2023-02-16T23:42:20;102801.59;;;0.39;87.16
55077;BME280;40971;44.702;11.030;2023-02-16T23:52:20;102801.53;;;-0.15;88.81
